Latest Weather Observations for Robe Airport

IDS60801

Issued at 9:35 pm CST Wednesday 1 October 2014 (issued every 30 minutes, with the page automatically refreshed every 10 minutes)

About weather observations | Map of weather stations | Latest weather observations for SA | Other Formats
Station Details ID: 026105 Name: ROBE AIRFIELD Lat: -37.18 Lon: 139.81 Height: 3.0 m
Data from the previous 72 hours. | See also: Recent months at Robe Airport
Date/Time
CST
Temp
°C
App
Temp
°C
Dew
Point
Rel
Hum
%
Delta-T
°C
Wind Press
QNH
hPa
Press
MSL
hPa
Rain
since 9 am
mm
Dir
 
Spd
km/h
Gust
km/h
Spd
kts
Gust
kts
01/09:30pm 12.6 9.6 6.0 64 3.1 WSW 11 19 6 10 1028.0 1028.0 0.2
01/09:00pm 12.6 9.6 6.0 64 3.1 SW 11 17 6 9 1027.9 1027.9 0.2
01/08:30pm 12.6 10.4 6.2 65 3.0 WSW 7 15 4 8 1028.0 1028.0 0.2
01/08:00pm 12.7 9.7 6.1 64 3.1 WSW 11 24 6 13 1028.0 1028.0 0.2
01/07:30pm 12.7 10.1 6.3 65 3.0 SW 9 17 5 9 1027.9 1027.9 0.2
01/07:00pm 12.4 10.2 6.0 65 3.0 WSW 7 13 4 7 1027.7 1027.7 0.2
01/06:30pm 12.2 9.6 6.0 66 2.9 SW 9 15 5 8 1027.5 1027.5 0.2
01/06:00pm 12.2 10.1 5.8 65 3.0 WSW 6 11 3 6 1027.3 1027.3 0.2
01/05:30pm 12.9 9.7 5.3 60 3.5 SW 11 19 6 10 1027.3 1027.3 0.2
01/05:00pm 13.5 10.1 5.9 60 3.6 SW 13 20 7 11 1027.1 1027.1 0.2
01/04:30pm 13.8 10.1 6.4 61 3.5 SW 15 22 8 12 1027.0 1027.0 0.2
01/04:00pm 14.3 11.5 6.9 61 3.6 SW 11 20 6 11 1027.0 1027.0 0.2
01/03:30pm 14.6 11.4 6.7 59 3.8 SW 13 22 7 12 1026.9 1026.9 0.2
01/03:00pm 14.9 11.8 7.2 60 3.8 SW 13 24 7 13 1026.8 1026.8 0.2
01/02:30pm 13.6 10.2 7.6 67 2.9 SSW 15 22 8 12 1027.3 1027.3 0.2
01/02:00pm 13.5 9.6 7.3 66 3.0 SSW 17 22 9 12 1027.3 1027.3 0.2
01/01:30pm 14.4 10.5 7.0 61 3.6 SW 17 24 9 13 1027.4 1027.4 0.2
01/01:00pm 14.8 11.5 6.4 57 4.1 SW 13 22 7 12 1027.5 1027.5 0.0
01/12:30pm 15.2 12.0 6.7 57 4.1 SW 13 24 7 13 1027.5 1027.5 0.0
01/12:00pm 14.9 11.6 6.5 57 4.0 WSW 13 20 7 11 1027.5 1027.5 0.0
01/11:30am 14.8 11.5 6.6 58 3.9 SW 13 22 7 12 1027.6 1027.6 0.0
01/11:00am 15.0 11.0 6.8 58 4.0 SSW 17 28 9 15 1027.6 1027.6 0.0
01/10:30am 14.7 10.7 6.5 58 3.9 SSW 17 26 9 14 1027.7 1027.7 0.0
01/10:00am 13.7 8.7 4.8 55 4.1 SSW 20 28 11 15 1027.7 1027.7 0.0
01/09:30am 13.1 7.7 4.5 56 3.9 SSW 22 30 12 16 1027.7 1027.7 0.0
01/09:00am 13.5 9.1 4.9 56 4.0 SSW 17 28 9 15 1027.1 1027.1 0.4
01/08:30am 13.5 8.5 6.6 63 3.3 SSW 22 30 12 16 1026.7 1026.7 0.4
01/08:00am 12.6 7.8 4.8 59 3.6 SSW 19 28 10 15 1026.0 1026.0 0.4
01/07:30am 12.7 9.0 4.2 56 3.8 SSW 13 22 7 12 1025.5 1025.5 0.4
01/07:00am 11.7 7.1 3.5 57 3.6 SSW 17 24 9 13 1025.2 1025.2 0.4
01/06:30am 11.1 5.8 2.9 57 3.5 SSW 20 30 11 16 1024.8 1024.8 0.4
01/06:00am 10.8 5.5 2.9 58 3.4 SSW 20 33 11 18 1024.4 1024.4 0.4
01/05:30am 11.2 6.0 3.3 58 3.4 SSW 20 32 11 17 1023.8 1023.8 0.4
01/05:00am 11.4 5.3 2.7 55 3.8 SSW 24 33 13 18 1023.4 1023.4 0.4
01/04:30am 11.1 4.9 2.2 54 3.8 SSW 24 39 13 21 1023.0 1023.0 0.4
01/04:00am 11.0 5.6 2.6 56 3.6 SW 20 32 11 17 1022.6 1022.6 0.4
01/03:30am 10.7 5.1 3.5 61 3.1 SSW 22 33 12 18 1022.4 1022.4 0.4
01/03:00am 11.0 5.1 4.0 62 3.1 SSW 24 37 13 20 1022.2 1022.2 0.4
01/02:30am 11.3 5.6 2.6 55 3.7 SSW 22 35 12 19 1021.9 1021.9 0.4
01/02:00am 11.3 6.1 3.8 60 3.3 SW 20 32 11 17 1021.5 1021.5 0.4
01/01:30am 11.2 5.6 3.3 58 3.4 SW 22 30 12 16 1021.5 1021.5 0.4
01/01:00am 11.1 5.7 4.3 63 3.0 SSW 22 33 12 18 1021.4 1021.4 0.4
01/12:30am 11.8 6.5 3.1 55 3.8 SW 20 35 11 19 1021.2 1021.2 0.4
01/12:00am 11.4 5.2 4.2 61 3.2 SSW 26 46 14 25 1021.0 1021.0 0.4
 
Date/Time
CST
Temp
°C
App
Temp
°C
Dew
Point
Rel
Hum
%
Delta-T
°C
Wind Press
QNH
hPa
Press
MSL
hPa
Rain
since 9 am
mm
Dir
 
Spd
km/h
Gust
km/h
Spd
kts
Gust
kts
30/11:51pm 11.9 5.0 2.6 53 4.0 SW 28 46 15 25 1020.8 1020.8 0.4
30/11:30pm 11.7 5.2 2.5 53 4.0 SW 26 37 14 20 1020.6 1020.6 0.4
30/11:00pm 11.7 5.2 2.5 53 4.0 SW 26 39 14 21 1020.4 1020.4 0.4
30/10:30pm 11.9 6.0 3.7 57 3.6 SW 24 39 13 21 1020.1 1020.1 0.4
30/10:00pm 11.9 6.0 3.7 57 3.6 SW 24 39 13 21 1019.7 1019.7 0.4
30/09:30pm 11.5 6.1 4.3 61 3.2 WSW 22 33 12 18 1019.4 1019.4 0.4
30/09:00pm 11.6 5.8 4.3 61 3.3 WSW 24 39 13 21 1019.0 1019.0 0.4
30/08:30pm 11.7 6.2 4.0 59 3.4 WSW 22 37 12 20 1018.6 1018.6 0.4
30/08:00pm 11.5 6.0 4.0 60 3.3 WSW 22 37 12 20 1018.2 1018.2 0.4
30/07:30pm 11.5 5.0 4.5 62 3.2 SW 28 41 15 22 1017.6 1017.6 0.4
30/07:03pm 11.1 4.5 6.0 71 2.4 SW 30 52 16 28 1017.1 1017.1 0.4
30/07:00pm 12.1 6.0 5.0 62 3.3 WSW 26 44 14 24 1016.9 1016.9 0.4
30/06:30pm 12.1 7.2 5.0 62 3.3 WSW 20 35 11 19 1016.3 1016.3 0.4
30/06:00pm 11.9 7.3 5.8 66 2.8 WSW 19 39 10 21 1016.0 1016.0 0.4
30/05:30pm 11.9 6.2 5.1 63 3.1 WSW 24 44 13 24 1015.6 1015.6 0.4
30/05:00pm 11.5 5.8 4.9 64 3.0 WSW 24 39 13 21 1015.2 1015.2 0.4
30/04:30pm 12.4 5.4 6.0 65 3.0 SW 32 50 17 27 1014.8 1014.8 0.4
30/04:00pm 10.8 3.9 7.1 78 1.8 SW 33 52 18 28 1014.3 1014.3 0.4
30/03:50pm 12.0 5.8 6.1 67 2.8 SW 28 52 15 28 1013.9 1013.9 0.4
30/03:30pm 13.4 7.3 6.5 63 3.3 SW 28 41 15 22 1013.4 1013.4 0.4
30/03:00pm 14.9 7.7 4.9 51 4.7 WSW 32 54 17 29 1012.9 1012.9 0.4
30/02:30pm 14.9 8.4 6.7 58 4.0 WSW 30 50 16 27 1012.4 1012.4 0.4
30/02:02pm 15.2 9.0 6.2 55 4.3 WSW 28 46 15 25 1011.9 1011.9 0.4
30/02:00pm 15.7 10.5 7.2 57 4.2 WSW 24 44 13 24 1011.9 1011.9 0.4
30/01:30pm 14.9 7.3 5.7 54 4.4 WSW 35 54 19 29 1011.7 1011.7 0.4
30/01:00pm 15.2 8.0 6.0 54 4.4 W 33 57 18 31 1011.0 1011.0 0.4
30/12:31pm 14.0 8.5 9.0 72 2.5 W 28 48 15 26 1010.3 1010.3 0.4
30/12:30pm 13.7 8.5 8.7 72 2.5 W 26 48 14 26 1010.3 1010.3 0.4
30/12:00pm 14.2 8.6 8.6 69 2.8 W 28 48 15 26 1009.8 1009.8 0.4
30/11:48am 14.0 8.2 8.0 67 3.0 W 28 50 15 27 1009.7 1009.7 0.4
30/11:30am 13.5 8.5 9.6 77 2.0 W 26 43 14 23 1009.5 1009.5 0.4
30/11:00am 12.2 5.9 9.6 84 1.3 W 33 67 18 36 1009.2 1009.2 0.0
30/10:30am 13.9 7.2 9.5 75 2.3 W 35 56 19 30 1008.5 1008.5 0.0
30/10:08am 17.1 11.1 12.0 72 2.8 WNW 35 56 19 30 1008.1 1008.1 0.0
30/10:00am 17.3 12.0 12.4 73 2.7 WNW 32 46 17 25 1008.0 1008.0 0.0
30/09:37am 17.4 11.3 13.1 76 2.4 NW 37 57 20 31 1008.0 1008.0 0.0
30/09:30am 17.0 10.9 13.1 78 2.2 NW 37 52 20 28 1008.0 1008.0 0.0
30/09:00am 16.8 11.1 12.9 78 2.2 NW 35 50 19 27 1008.1 1008.1 0.0
30/08:36am 16.7 10.5 12.7 77 2.2 NW 37 56 20 30 1008.0 1008.0 0.0
30/08:30am 16.5 10.7 12.8 79 2.1 NW 35 46 19 25 1007.9 1007.9 0.0
30/08:00am 15.6 9.9 12.9 84 1.5 NNW 35 50 19 27 1008.1 1008.1 0.0
30/07:30am 15.1 9.3 12.8 86 1.3 NNW 35 52 19 28 1007.8 1007.8 0.0
30/07:00am 15.2 9.9 12.5 84 1.5 NNW 32 46 17 25 1008.0 1008.0 0.0
30/06:30am 14.9 9.7 12.8 87 1.2 NNW 32 44 17 24 1007.8 1007.8 0.0
30/06:00am 14.8 9.4 12.3 85 1.4 NNW 32 46 17 25 1007.7 1007.7 0.0
30/05:30am 14.6 10.2 12.8 89 1.0 NNW 28 37 15 20 1007.5 1007.5 0.0
30/05:00am 14.6 9.8 13.0 90 0.9 NNW 30 44 16 24 1007.5 1007.5 0.0
30/04:30am 14.8 10.9 13.2 90 0.9 NNW 26 35 14 19 1007.7 1007.7 0.0
30/04:00am 14.8 10.4 13.0 89 1.0 NNW 28 37 15 20 1008.1 1008.1 0.0
30/03:30am 14.8 10.7 12.8 88 1.1 NNW 26 39 14 21 1008.2 1008.2 0.0
30/03:00am 14.8 10.7 12.7 87 1.2 NW 26 37 14 20 1008.8 1008.8 0.0
30/02:30am 14.7 10.6 12.6 87 1.2 NW 26 37 14 20 1009.0 1009.0 0.0
30/02:00am 14.7 10.5 12.4 86 1.3 NW 26 35 14 19 1009.5 1009.5 0.0
30/01:30am 14.3 10.4 12.2 87 1.1 NW 24 32 13 17 1009.7 1009.7 0.0
30/01:00am 14.4 10.1 11.9 85 1.3 NW 26 37 14 20 1010.2 1010.2 0.0
30/12:30am 14.9 11.0 12.0 83 1.6 NW 24 33 13 18 1010.8 1010.8 0.0
30/12:00am 14.8 10.8 11.8 82 1.6 NW 24 35 13 19 1011.1 1011.1 0.0
 
Date/Time
CST
Temp
°C
App
Temp
°C
Dew
Point
Rel
Hum
%
Delta-T
°C
Wind Press
QNH
hPa
Press
MSL
hPa
Rain
since 9 am
mm
Dir
 
Spd
km/h
Gust
km/h
Spd
kts
Gust
kts
29/11:30pm 14.7 10.2 11.5 81 1.7 WNW 26 37 14 20 1011.4 1011.4 0.0
29/11:00pm 14.2 10.9 11.0 81 1.7 NW 19 28 10 15 1011.5 1011.5 0.0
29/10:30pm 14.1 10.6 10.3 78 2.0 NW 19 26 10 14 1011.9 1011.9 0.0
29/10:00pm 14.5 11.3 10.1 75 2.3 WNW 17 24 9 13 1012.1 1012.1 0.0
29/09:30pm 14.6 11.9 10.4 76 2.2 WNW 15 24 8 13 1012.4 1012.4 0.0
29/09:00pm 14.5 11.7 11.3 81 1.7 WNW 17 24 9 13 1012.4 1012.4 0.0
29/08:30pm 13.7 11.9 10.9 83 1.5 NW 11 17 6 9 1012.3 1012.3 0.0
29/08:00pm 13.5 11.2 10.5 82 1.6 NW 13 20 7 11 1012.4 1012.4 0.0
29/07:30pm 13.6 11.5 11.1 85 1.3 NW 13 20 7 11 1012.3 1012.3 0.0
29/07:00pm 13.7 12.1 11.4 86 1.2 NW 11 17 6 9 1012.1 1012.1 0.0
29/06:30pm 13.9 11.1 11.2 84 1.4 NW 17 20 9 11 1012.0 1012.0 0.0
29/06:00pm 14.1 10.9 11.1 82 1.6 NNW 19 26 10 14 1012.1 1012.1 0.0
29/05:30pm 14.9 11.1 11.3 79 1.9 NNW 22 30 12 16 1012.0 1012.0 0.0
29/05:00pm 15.6 12.2 11.4 76 2.3 NNW 20 30 11 16 1011.9 1011.9 0.0
29/04:30pm 15.6 11.4 11.0 74 2.5 NNW 24 32 13 17 1011.9 1011.9 0.0
29/04:00pm 16.1 12.3 11.3 73 2.6 NNW 22 32 12 17 1011.8 1011.8 0.0
29/03:30pm 16.6 12.8 11.3 71 2.9 NW 22 30 12 16 1011.8 1011.8 0.0
29/03:00pm 16.8 12.5 10.6 67 3.3 NW 24 33 13 18 1012.1 1012.1 0.0
29/02:30pm 16.9 12.5 10.5 66 3.4 NW 24 37 13 20 1012.2 1012.2 0.0
29/02:00pm 17.2 11.6 10.3 64 3.7 NW 30 41 16 22 1012.7 1012.7 0.0
29/01:30pm 17.1 11.5 10.0 63 3.7 NW 30 43 16 23 1012.7 1012.7 0.0
29/01:00pm 17.1 11.8 10.0 63 3.7 NW 28 39 15 21 1013.2 1013.2 0.0
29/12:30pm 17.1 11.5 10.0 63 3.7 NW 30 39 16 21 1013.3 1013.3 0.0
29/12:00pm 17.1 11.8 9.8 62 3.8 NW 28 39 15 21 1013.4 1013.4 0.0
29/11:30am 17.0 12.0 9.7 62 3.8 NW 26 37 14 20 1013.4 1013.4 0.0
29/11:00am 16.4 11.3 9.3 63 3.7 NW 26 37 14 20 1013.5 1013.5 0.0
29/10:30am 16.6 12.1 10.2 66 3.4 WNW 24 32 13 17 1013.5 1013.5 0.0
29/10:00am 16.4 12.3 10.0 66 3.4 WNW 22 33 12 18 1013.6 1013.6 0.0
29/09:30am 16.2 12.2 10.3 68 3.1 WNW 22 28 12 15 1013.7 1013.7 0.0
29/09:00am 14.7 11.5 9.9 73 2.5 WNW 17 28 9 15 1013.9 1013.9 0.0
29/08:30am 16.5 13.5 10.6 68 3.1 WNW 17 30 9 16 1013.7 1013.7 0.0
29/08:00am 15.9 12.9 10.7 71 2.8 WNW 17 28 9 15 1013.5 1013.5 0.0
29/07:30am 15.0 11.8 10.0 72 2.6 WNW 17 26 9 14 1013.1 1013.1 0.0
29/07:00am 14.3 11.9 9.9 75 2.3 W 13 20 7 11 1012.9 1012.9 0.0
29/06:30am 13.5 10.9 9.4 76 2.1 W 13 19 7 10 1012.6 1012.6 0.0
29/06:00am 13.3 11.1 9.5 78 1.9 W 11 22 6 12 1012.3 1012.3 0.0
29/05:30am 13.4 10.0 9.1 75 2.2 W 17 30 9 16 1012.3 1012.3 0.0
29/05:00am 13.6 10.5 8.9 73 2.4 W 15 24 8 13 1012.0 1012.0 0.0
29/04:30am 13.6 10.4 9.8 78 2.0 W 17 26 9 14 1011.8 1011.8 0.0
29/04:00am 13.7 11.3 9.9 78 2.0 W 13 20 7 11 1011.6 1011.6 0.0
29/03:30am 13.4 10.5 9.5 77 2.0 W 15 22 8 12 1011.5 1011.5 0.0
29/03:00am 13.8 10.2 9.8 77 2.1 W 19 30 10 16 1011.4 1011.4 0.0
29/02:30am 14.1 9.8 9.5 74 2.4 W 22 37 12 20 1011.2 1011.2 0.0
29/02:00am 14.3 10.6 9.5 73 2.5 W 19 32 10 17 1010.9 1010.9 0.0
29/01:30am 14.4 9.8 9.8 74 2.4 W 24 37 13 20 1011.1 1011.1 0.0
29/01:00am 14.5 10.1 10.5 77 2.1 W 24 37 13 20 1011.1 1011.1 0.0
29/12:32am 14.9 9.9 10.9 77 2.1 WNW 28 48 15 26 1011.0 1011.0 0.0
29/12:30am 14.8 10.2 11.0 78 2.0 WNW 26 46 14 25 1011.0 1011.0 0.0
29/12:00am 14.9 9.4 10.7 76 2.2 WNW 30 48 16 26 1011.0 1011.0 0.0
 
Date/Time
CST
Temp
°C
App
Temp
°C
Dew
Point
Rel
Hum
%
Delta-T
°C
Wind Press
QNH
hPa
Press
MSL
hPa
Rain
since 9 am
mm
Dir
 
Spd
km/h
Gust
km/h
Spd
kts
Gust
kts
28/11:31pm 15.2 9.5 11.2 77 2.1 WNW 32 50 17 27 1010.9 1010.9 0.0
28/11:30pm 15.2 9.9 11.2 77 2.1 WNW 30 46 16 25 1010.9 1010.9 0.0
28/11:02pm 15.2 9.9 11.2 77 2.1 WNW 30 48 16 26 1010.6 1010.6 0.0
28/11:00pm 15.1 9.8 11.3 78 2.0 WNW 30 44 16 24 1010.5 1010.5 0.0
28/10:30pm 15.1 10.1 10.9 76 2.2 WNW 28 43 15 23 1010.5 1010.5 0.0
28/10:00pm 14.9 10.0 11.3 79 1.9 WNW 28 43 15 23 1010.3 1010.3 0.0

Other Formats:

Comma delimited format used in spreadsheet applications
http://www.bom.gov.au/fwo/IDS60801/IDS60801.95816.axf

JavaScript Object Notation format (JSON) in row-major order
http://www.bom.gov.au/fwo/IDS60801/IDS60801.95816.json